Impacts TAF Board INFO
FOR SITUATIONAL AWARENESS. NOT TO BE USED FOR FLIGHT PLANNING PURPOSES.
IDs:

KHUM - Houma/Terrebonne Arp, LA, US

Issued at 1128 UTC 16 Jan 2018
Updated at 1515 UTC 16 Jan 2018
Potential Impact None Slight Moderate High
Time1350Z 16/16Z 16/17Z 16/18Z 16/19Z 16/20Z 16/21Z 16/22Z 16/23Z 17/00Z 17/01Z 17/02Z 17/03Z 17/04Z>>
Type OBS PRVL PRVL PRVL PRVL PRVL PRVL PRVL
  [PRB30]  
PRVL
  [PRB30]  
PRVL
  [PRB30]  
PRVL
  [PRB30]  
PRVL PRVL PRVL
VIS 7 >6 >6 >6 >6 >6 >6 >6
  [4]  
>6
  [4]  
>6
  [4]  
>6
  [4]  
>6 >6 >6
CIG -- 60 20 20 20 20 20 20
  [3]  
20
  [3]  
20
  [3]  
20
  [3]  
15 15 15
Cover SCT BKN OVC OVC OVC OVC OVC OVC
  [OVC]  
OVC
  [OVC]  
OVC
  [OVC]  
OVC
  [OVC]  
OVC OVC OVC
FltCat VFR VFR MVFR MVFR MVFR MVFR MVFR MVFR
  [LIFR]  
MVFR
  [LIFR]  
MVFR
  [LIFR]  
MVFR
  [LIFR]  
MVFR MVFR MVFR
WX -- -- VCSH VCSH VCSH VCSH VCSH VCSH
  [-FZRA SN PL]  
VCSH
  [-FZRA SN PL]  
VCSH
  [-FZRA SN PL]  
VCSH
  [-FZRA SN PL]  
-- -- --
WDir VRB 360 360 360 360 360 360 360
[360]
360
[360]
360
[360]
360
[360]
360 360 360
WSpd 0 12 12 12 12 12 12 12
  [12]  
12
  [12]  
12
  [12]  
12
  [12]  
15 15 15
WGst -- 22 22 22 22 22 22 22
  [22]  
22
  [22]  
22
  [22]  
22
  [22]  
-- -- --

Raw TAF
KHUM 161128Z 1612/1712 36005KT 5SM BR BKN090
  FM161500 36012G22KT P6SM BKN060
  FM161700 36012G22KT P6SM VCSH BKN020 OVC150
  PROB30 1622/1702 4SM -FZRASNPL OVC003
  FM170200 36015KT P6SM BKN015 OVC150
  FM171000 36014KT P6SM SCT200


Raw METAR
KHUM 161350Z 00000KT 7SM SCT060 07/07 A3040
KHUM 161255Z 35005KT 7SM SCT060 06/05 A3039

METAR Board
Radar Display
Forecast Discussion

FOR SITUATIONAL AWARENESS. NOT TO BE USED FOR FLIGHT PLANNING PURPOSES.